createdAt,value
2023-04-27T00:02:11.668Z,3.74
2023-04-27T00:04:39.536Z,3.73
2023-04-27T00:07:07.180Z,3.61
2023-04-27T00:09:34.773Z,3.56
2023-04-27T00:12:02.283Z,3.57
2023-04-27T00:14:29.828Z,3.53
2023-04-27T00:16:57.345Z,3.44
2023-04-27T00:19:26.257Z,3.51
2023-04-27T00:21:53.846Z,3.48
2023-04-27T00:24:21.349Z,3.49
2023-04-27T00:26:48.864Z,3.49
2023-04-27T00:29:16.460Z,3.59
2023-04-27T00:31:44.016Z,3.63
2023-04-27T00:34:11.664Z,3.59
2023-04-27T00:36:41.277Z,3.54
2023-04-27T00:39:09.063Z,3.44
2023-04-27T00:41:38.295Z,3.54
2023-04-27T00:44:06.358Z,3.54
2023-04-27T00:46:36.132Z,3.56
2023-04-27T00:49:03.768Z,3.61
2023-04-27T00:51:32.086Z,3.53
2023-04-27T00:54:01.532Z,3.49
2023-04-27T00:56:29.112Z,3.47
2023-04-27T00:58:56.768Z,3.42
2023-04-27T01:01:26.038Z,3.33
2023-04-27T01:03:54.460Z,3.26
2023-04-27T01:06:23.860Z,3.22
2023-04-27T01:08:51.543Z,3.14
2023-04-27T01:11:21.580Z,3.18
2023-04-27T01:13:49.093Z,3.32
2023-04-27T01:16:18.480Z,3.34
2023-04-27T01:18:46.783Z,3.41
2023-04-27T01:21:14.371Z,3.40
2023-04-27T01:23:43.255Z,3.38
2023-04-27T01:26:13.464Z,3.39
2023-04-27T01:28:42.435Z,3.39
2023-04-27T01:31:11.293Z,3.34
2023-04-27T01:33:38.887Z,3.29
2023-04-27T01:36:08.314Z,3.31
2023-04-27T01:38:37.092Z,3.31
2023-04-27T01:41:09.030Z,3.31
2023-04-27T01:43:37.916Z,3.37
2023-04-27T01:46:10.595Z,3.49
2023-04-27T01:48:39.011Z,3.45
2023-04-27T01:51:06.901Z,3.50
2023-04-27T01:53:34.678Z,3.53
2023-04-27T01:56:02.338Z,3.37
2023-04-27T01:58:31.397Z,3.45
2023-04-27T02:00:58.965Z,3.28
2023-04-27T02:03:26.789Z,3.35
2023-04-27T02:05:54.545Z,3.35
2023-04-27T02:08:22.069Z,3.38
2023-04-27T02:10:49.745Z,3.47
2023-04-27T02:13:18.278Z,3.47
2023-04-27T02:15:47.196Z,3.44
2023-04-27T02:18:16.204Z,3.48
2023-04-27T02:20:43.757Z,3.47
2023-04-27T02:23:11.536Z,3.56
2023-04-27T02:25:39.059Z,3.61
2023-04-27T02:28:06.655Z,3.62
2023-04-27T02:30:34.715Z,3.59
2023-04-27T02:33:03.647Z,3.62
2023-04-27T02:35:33.396Z,3.58
2023-04-27T02:38:01.134Z,3.63
2023-04-27T02:40:28.800Z,3.51
2023-04-27T02:42:56.584Z,3.48
2023-04-27T02:45:24.341Z,3.51
2023-04-27T02:47:52.096Z,3.41
2023-04-27T02:50:21.379Z,3.43
2023-04-27T02:52:48.926Z,3.40
2023-04-27T02:55:17.164Z,3.45
2023-04-27T02:57:45.130Z,3.35
2023-04-27T03:00:13.606Z,3.46
2023-04-27T03:02:41.383Z,3.47
2023-04-27T03:05:09.737Z,3.49
2023-04-27T03:07:38.836Z,3.42
2023-04-27T03:10:06.904Z,3.47
2023-04-27T03:12:34.495Z,3.43
2023-04-27T03:15:02.063Z,3.51
2023-04-27T03:17:29.695Z,3.41
2023-04-27T03:19:57.281Z,3.39
2023-04-27T03:22:25.091Z,3.31
2023-04-27T03:24:53.932Z,3.52
2023-04-27T03:27:21.429Z,3.52
2023-04-27T03:29:52.622Z,3.52
2023-04-27T03:32:20.556Z,3.57
2023-04-27T03:34:48.165Z,3.55
2023-04-27T03:37:16.101Z,3.45
2023-04-27T03:39:44.858Z,3.46
2023-04-27T03:42:13.822Z,3.42
2023-04-27T03:44:41.492Z,3.39
2023-04-27T03:47:09.631Z,3.47
2023-04-27T03:49:39.614Z,3.40
2023-04-27T03:52:08.392Z,3.51
2023-04-27T03:54:36.308Z,3.48
2023-04-27T03:57:04.345Z,3.49
2023-04-27T03:59:33.236Z,3.37
2023-04-27T04:02:01.518Z,3.39
2023-04-27T04:04:29.313Z,3.42
2023-04-27T04:06:57.427Z,3.35
2023-04-27T04:09:25.637Z,3.40
2023-04-27T04:11:53.557Z,3.42
2023-04-27T04:14:21.114Z,3.36
2023-04-27T04:16:49.989Z,3.31
2023-04-27T04:19:17.521Z,3.24
2023-04-27T04:21:45.013Z,3.19
2023-04-27T04:24:12.540Z,3.12
2023-04-27T04:26:40.081Z,3.10
2023-04-27T04:29:10.711Z,3.09
2023-04-27T04:31:38.707Z,3.10
2023-04-27T04:34:08.564Z,3.24
2023-04-27T04:36:36.100Z,3.30
2023-04-27T04:39:04.229Z,3.39
2023-04-27T04:41:33.261Z,3.48
2023-04-27T04:44:00.844Z,3.52
2023-04-27T04:46:30.504Z,3.61
2023-04-27T04:48:58.196Z,3.62
2023-04-27T04:51:27.197Z,3.61
2023-04-27T04:53:54.829Z,3.64
2023-04-27T04:56:24.163Z,3.54
2023-04-27T04:58:51.723Z,3.62
2023-04-27T05:01:19.278Z,3.62
2023-04-27T05:03:46.988Z,3.71
2023-04-27T05:06:14.608Z,3.77
2023-04-27T05:08:43.492Z,3.85
2023-04-27T05:11:11.374Z,3.86
2023-04-27T05:13:40.176Z,3.94
2023-04-27T05:16:08.882Z,3.99
2023-04-27T05:18:36.880Z,4.05
2023-04-27T05:21:05.270Z,4.17
2023-04-27T05:23:32.822Z,4.25
2023-04-27T05:26:01.722Z,4.32
2023-04-27T05:28:29.238Z,4.36
2023-04-27T05:30:56.706Z,4.40
2023-04-27T05:33:24.262Z,4.52
2023-04-27T05:35:51.813Z,4.60
2023-04-27T05:38:19.312Z,4.55
2023-04-27T05:40:46.845Z,4.54
2023-04-27T05:43:15.724Z,4.53
2023-04-27T05:45:43.301Z,4.62
2023-04-27T05:48:10.928Z,4.63
2023-04-27T05:50:38.421Z,4.45
2023-04-27T05:53:06.105Z,4.61
2023-04-27T05:55:33.713Z,4.80
2023-04-27T05:58:08.397Z,4.85
2023-04-27T06:00:38.209Z,4.91
2023-04-27T06:03:05.958Z,4.98
2023-04-27T06:05:34.303Z,4.98
2023-04-27T06:08:01.922Z,5.05
2023-04-27T06:10:29.499Z,5.14
2023-04-27T06:12:57.038Z,5.24
2023-04-27T06:15:24.586Z,5.29
2023-04-27T06:17:53.487Z,5.36
2023-04-27T06:20:21.141Z,5.40
2023-04-27T06:22:48.709Z,5.50
2023-04-27T06:25:16.362Z,5.56
2023-04-27T06:27:43.944Z,5.66
2023-04-27T06:30:12.736Z,5.84
2023-04-27T06:32:40.670Z,5.91
2023-04-27T06:35:10.414Z,6.08
2023-04-27T06:37:37.970Z,6.10
2023-04-27T06:40:06.712Z,6.15
2023-04-27T06:42:34.251Z,6.18
2023-04-27T06:45:01.870Z,6.33
2023-04-27T06:47:29.523Z,6.40
2023-04-27T06:49:57.103Z,6.50
2023-04-27T06:52:26.073Z,6.62
2023-04-27T06:54:53.593Z,6.54
2023-04-27T06:57:21.570Z,6.70
2023-04-27T06:59:49.157Z,6.87
2023-04-27T07:02:17.193Z,6.81
2023-04-27T07:04:44.821Z,6.92
2023-04-27T07:07:12.545Z,7.03
2023-04-27T07:09:41.885Z,7.07
2023-04-27T07:12:09.497Z,6.97
2023-04-27T07:14:37.087Z,6.96
2023-04-27T07:17:04.601Z,6.99
2023-04-27T07:19:33.095Z,7.09
2023-04-27T07:22:00.643Z,6.98
2023-04-27T07:24:28.133Z,6.95
2023-04-27T07:26:58.011Z,7.15
2023-04-27T07:29:28.035Z,7.53
2023-04-27T07:31:56.280Z,7.65
2023-04-27T07:34:24.341Z,7.60
2023-04-27T07:36:54.000Z,7.49
2023-04-27T07:39:21.600Z,7.26
2023-04-27T07:41:50.036Z,7.04
2023-04-27T07:44:19.339Z,7.08
2023-04-27T07:46:48.827Z,7.25
2023-04-27T07:49:16.632Z,7.43
2023-04-27T07:51:44.167Z,7.52
2023-04-27T07:54:11.713Z,7.81
2023-04-27T07:56:42.691Z,8.18
2023-04-27T07:59:10.402Z,8.36
2023-04-27T08:01:39.408Z,7.97
2023-04-27T08:04:07.461Z,7.99
2023-04-27T08:06:36.183Z,8.24
2023-04-27T08:09:04.954Z,8.45
2023-04-27T08:11:32.760Z,8.37
2023-04-27T08:14:00.432Z,8.13
2023-04-27T08:16:28.765Z,7.90
2023-04-27T08:18:58.674Z,7.92
2023-04-27T08:21:28.381Z,7.62
2023-04-27T08:23:56.413Z,7.48
2023-04-27T08:26:26.241Z,7.42
2023-04-27T08:28:54.033Z,7.42
2023-04-27T08:31:21.939Z,7.55
2023-04-27T08:33:49.519Z,7.71
2023-04-27T08:36:18.486Z,7.76
2023-04-27T08:38:46.483Z,8.02
2023-04-27T08:41:21.890Z,8.47
2023-04-27T08:43:50.799Z,9.01
2023-04-27T08:46:21.816Z,9.09
2023-04-27T08:48:51.789Z,9.03
2023-04-27T08:51:21.781Z,8.95
2023-04-27T08:53:51.366Z,8.73
2023-04-27T08:56:19.540Z,8.69
2023-04-27T08:58:47.093Z,8.46
2023-04-27T09:01:14.592Z,8.52
2023-04-27T09:03:42.425Z,8.26
2023-04-27T09:06:10.445Z,8.19
2023-04-27T09:08:47.180Z,8.10
2023-04-27T09:11:15.355Z,7.85
2023-04-27T09:13:45.132Z,7.80
2023-04-27T09:16:14.115Z,7.77
2023-04-27T09:18:43.511Z,7.98
2023-04-27T09:21:11.331Z,8.44
2023-04-27T09:23:40.621Z,8.66
2023-04-27T09:26:09.631Z,9.10
2023-04-27T09:28:39.878Z,9.36
2023-04-27T09:31:09.138Z,9.53
2023-04-27T09:33:37.547Z,9.95
2023-04-27T09:36:07.343Z,9.99
2023-04-27T09:38:34.980Z,9.60
2023-04-27T09:41:03.362Z,9.26
2023-04-27T09:43:32.556Z,9.21
2023-04-27T09:46:00.252Z,9.19
2023-04-27T09:48:27.953Z,8.93
2023-04-27T09:50:55.510Z,9.05
2023-04-27T09:53:27.363Z,9.22
2023-04-27T09:56:14.721Z,9.41
2023-04-27T09:59:07.048Z,9.49
2023-04-27T10:01:39.932Z,9.45
2023-04-27T10:04:21.396Z,9.50
2023-04-27T10:07:02.826Z,9.91
2023-04-27T10:09:41.205Z,9.96
2023-04-27T10:12:17.971Z,9.91
2023-04-27T10:14:54.092Z,10.22
2023-04-27T10:17:26.762Z,10.21
2023-04-27T10:19:58.877Z,10.12
2023-04-27T10:22:39.127Z,10.20
2023-04-27T10:25:14.955Z,9.90
2023-04-27T10:27:42.627Z,9.87
2023-04-27T10:30:13.468Z,9.82
2023-04-27T10:32:51.613Z,9.84
2023-04-27T10:35:20.848Z,10.03
2023-04-27T10:37:48.640Z,9.91
2023-04-27T10:40:18.207Z,9.77
2023-04-27T10:42:49.192Z,9.58
2023-04-27T10:45:31.625Z,9.29
2023-04-27T10:48:02.245Z,8.93
2023-04-27T10:50:29.999Z,9.02
2023-04-27T10:53:01.520Z,8.81
2023-04-27T10:55:29.436Z,8.80
2023-04-27T10:57:57.845Z,8.66
2023-04-27T11:00:26.903Z,8.65
2023-04-27T11:02:57.063Z,8.70
2023-04-27T11:05:29.289Z,8.77
2023-04-27T11:08:07.053Z,8.84
2023-04-27T11:10:35.645Z,9.02
2023-04-27T11:13:09.120Z,9.24
2023-04-27T11:15:44.784Z,9.36
2023-04-27T11:18:13.784Z,9.42
2023-04-27T11:20:41.390Z,9.30
2023-04-27T11:23:10.935Z,9.40
2023-04-27T11:25:38.753Z,9.45
2023-04-27T11:28:06.375Z,9.39
2023-04-27T11:30:34.044Z,9.53
2023-04-27T11:33:09.490Z,9.41
2023-04-27T11:35:39.490Z,9.48
2023-04-27T11:38:07.093Z,9.65
2023-04-27T11:40:35.887Z,9.62
2023-04-27T11:43:04.329Z,9.62
2023-04-27T11:45:31.950Z,9.46
2023-04-27T11:47:59.979Z,9.49
2023-04-27T11:50:28.813Z,9.74
2023-04-27T11:53:01.626Z,9.94
2023-04-27T11:55:29.344Z,10.04
2023-04-27T11:57:59.780Z,10.18
2023-04-27T12:00:27.481Z,10.13
2023-04-27T12:02:55.301Z,9.98
2023-04-27T12:05:23.327Z,9.82
2023-04-27T12:07:51.003Z,10.00
2023-04-27T12:10:20.008Z,9.70
2023-04-27T12:12:47.550Z,9.87
2023-04-27T12:15:15.089Z,9.77
2023-04-27T12:17:42.717Z,9.72
2023-04-27T12:20:11.603Z,9.70
2023-04-27T12:22:39.168Z,9.65
2023-04-27T12:25:07.508Z,9.58
2023-04-27T12:27:36.368Z,9.70
2023-04-27T12:30:04.615Z,9.68
2023-04-27T12:32:32.176Z,9.62
2023-04-27T12:34:59.747Z,9.70
2023-04-27T12:37:27.293Z,9.74
2023-04-27T12:39:55.097Z,9.74
2023-04-27T12:42:24.052Z,9.69
2023-04-27T12:44:53.034Z,9.59
2023-04-27T12:47:46.080Z,9.39
2023-04-27T12:50:10.504Z,9.35
2023-04-27T12:52:38.058Z,9.33
2023-04-27T12:55:06.410Z,9.32
2023-04-27T12:57:34.300Z,9.30
2023-04-27T13:00:04.191Z,9.26
2023-04-27T13:02:31.963Z,9.14
2023-04-27T13:04:59.916Z,9.16
2023-04-27T13:07:27.501Z,9.19
2023-04-27T13:09:55.039Z,9.23
2023-04-27T13:12:23.542Z,9.28
2023-04-27T13:14:51.707Z,9.39
2023-04-27T13:17:20.948Z,9.44
2023-04-27T13:19:48.451Z,9.41
2023-04-27T13:22:16.499Z,9.38
2023-04-27T13:24:44.273Z,9.40
2023-04-27T13:27:12.195Z,9.50
2023-04-27T13:29:39.774Z,9.48
2023-04-27T13:32:07.362Z,9.30
2023-04-27T13:34:36.235Z,9.18
2023-04-27T13:37:04.205Z,9.26
2023-04-27T13:39:32.795Z,9.33
2023-04-27T13:42:00.478Z,9.47
2023-04-27T13:44:28.082Z,9.60
2023-04-27T13:46:55.790Z,9.78
2023-04-27T13:49:23.459Z,9.80
2023-04-27T13:51:52.346Z,9.84
2023-04-27T13:54:21.399Z,9.97
2023-04-27T13:56:48.986Z,10.08
2023-04-27T13:59:17.320Z,10.15
2023-04-27T14:01:44.985Z,9.93
2023-04-27T14:04:12.609Z,9.98
2023-04-27T14:06:40.438Z,9.99
2023-04-27T14:09:09.330Z,9.89
2023-04-27T14:11:52.492Z,10.00
2023-04-27T14:14:23.207Z,10.00
2023-04-27T14:16:51.624Z,10.09
2023-04-27T14:19:20.465Z,10.02
2023-04-27T14:21:48.147Z,10.02
2023-04-27T14:24:17.018Z,10.05
2023-04-27T14:26:45.258Z,9.87
2023-04-27T14:29:12.758Z,9.72
2023-04-27T14:31:41.119Z,9.86
2023-04-27T14:34:09.307Z,9.75
2023-04-27T14:36:36.854Z,9.71
2023-04-27T14:39:06.436Z,9.62
2023-04-27T14:41:36.435Z,9.56
2023-04-27T14:44:04.473Z,9.34
2023-04-27T14:46:32.089Z,9.45
2023-04-27T14:48:59.600Z,9.65
2023-04-27T14:51:28.733Z,9.69
2023-04-27T14:53:56.260Z,9.79
2023-04-27T14:56:24.093Z,9.54
2023-04-27T14:58:55.019Z,9.63
2023-04-27T15:01:22.919Z,9.66
2023-04-27T15:03:52.972Z,9.60
2023-04-27T15:06:21.866Z,9.58
2023-04-27T15:08:49.352Z,9.63
2023-04-27T15:11:16.835Z,9.74
2023-04-27T15:13:44.392Z,9.79
2023-04-27T15:16:13.461Z,9.94
2023-04-27T15:18:42.105Z,10.02
2023-04-27T15:21:09.762Z,9.97
2023-04-27T15:23:37.362Z,9.84
2023-04-27T15:26:05.370Z,9.83
2023-04-27T15:28:33.679Z,10.00
2023-04-27T15:31:01.368Z,10.03
2023-04-27T15:33:30.386Z,10.15
2023-04-27T15:35:58.958Z,10.14
2023-04-27T15:38:26.584Z,10.01
2023-04-27T15:40:54.130Z,9.88
2023-04-27T15:43:21.981Z,9.77
2023-04-27T15:45:49.881Z,9.79
2023-04-27T15:48:17.385Z,9.78
2023-04-27T15:50:47.750Z,9.76
2023-04-27T15:53:15.329Z,9.75
2023-04-27T15:55:43.284Z,9.62
2023-04-27T15:58:10.810Z,9.53
2023-04-27T16:00:38.696Z,9.62
2023-04-27T16:03:10.796Z,9.63
2023-04-27T16:05:38.712Z,9.69
2023-04-27T16:08:07.644Z,9.59
2023-04-27T16:10:35.567Z,9.74
2023-04-27T16:13:03.248Z,9.55
2023-04-27T16:15:30.788Z,9.70
2023-04-27T16:17:58.405Z,9.76
2023-04-27T16:20:28.797Z,9.75
2023-04-27T16:22:56.406Z,9.67
2023-04-27T16:25:25.251Z,9.59
2023-04-27T16:27:52.817Z,9.71
2023-04-27T16:30:20.407Z,10.02
2023-04-27T16:32:48.049Z,9.99
2023-04-27T16:35:15.614Z,9.96
2023-04-27T16:37:43.128Z,9.88
2023-04-27T16:40:11.686Z,9.88
2023-04-27T16:42:40.666Z,9.93
2023-04-27T16:45:10.698Z,9.94
2023-04-27T16:47:38.702Z,10.14
2023-04-27T16:50:07.443Z,10.37
2023-04-27T16:52:34.953Z,10.45
2023-04-27T16:55:02.454Z,10.67
2023-04-27T16:57:30.469Z,10.84
2023-04-27T16:59:59.329Z,10.90
2023-04-27T17:02:27.033Z,10.69
2023-04-27T17:04:55.080Z,10.47
2023-04-27T17:07:22.645Z,10.23
2023-04-27T17:09:50.184Z,10.09
2023-04-27T17:12:17.999Z,10.06
2023-04-27T17:14:45.597Z,10.16
2023-04-27T17:17:14.629Z,10.24
2023-04-27T17:19:42.491Z,10.06
2023-04-27T17:22:13.090Z,9.77
2023-04-27T17:24:40.841Z,9.77
2023-04-27T17:27:08.688Z,9.76
2023-04-27T17:29:37.229Z,9.86
2023-04-27T17:32:05.066Z,10.14
2023-04-27T17:34:34.158Z,10.40
2023-04-27T17:37:01.769Z,10.63
2023-04-27T17:39:29.406Z,10.59
2023-04-27T17:41:57.210Z,10.81
2023-04-27T17:44:24.738Z,10.97
2023-04-27T17:46:53.311Z,11.16
2023-04-27T17:49:21.237Z,11.14
2023-04-27T17:51:50.147Z,11.19
2023-04-27T17:54:17.776Z,11.14
2023-04-27T17:56:45.378Z,11.23
2023-04-27T17:59:13.145Z,11.31
2023-04-27T18:01:40.991Z,11.22
2023-04-27T18:04:08.642Z,11.03
2023-04-27T18:06:36.408Z,11.01
2023-04-27T18:09:06.273Z,10.87
2023-04-27T18:11:34.206Z,10.64
2023-04-27T18:14:01.848Z,10.24
2023-04-27T18:16:29.385Z,10.06
2023-04-27T18:18:58.064Z,9.77
2023-04-27T18:21:26.729Z,9.54
2023-04-27T18:23:54.295Z,9.38
2023-04-27T18:26:23.285Z,9.17
2023-04-27T18:28:50.807Z,9.06
2023-04-27T18:31:20.135Z,8.90
2023-04-27T18:33:47.986Z,8.74
2023-04-27T18:36:15.626Z,8.59
2023-04-27T18:38:43.209Z,8.58
2023-04-27T18:41:10.771Z,8.44
2023-04-27T18:43:39.698Z,8.39
2023-04-27T18:46:07.476Z,8.36
2023-04-27T18:48:35.027Z,8.36
2023-04-27T18:51:02.572Z,8.23
2023-04-27T18:53:30.094Z,8.16
2023-04-27T18:55:57.609Z,8.08
2023-04-27T18:58:25.201Z,8.03
2023-04-27T19:00:54.088Z,7.95
2023-04-27T19:03:21.795Z,7.99
2023-04-27T19:05:51.196Z,8.04
2023-04-27T19:08:18.738Z,8.11
2023-04-27T19:10:46.262Z,8.05
2023-04-27T19:13:13.893Z,8.11
2023-04-27T19:15:41.472Z,8.00
2023-04-27T19:18:11.649Z,8.00
2023-04-27T19:20:39.677Z,8.00
2023-04-27T19:23:07.857Z,7.93
2023-04-27T19:25:35.687Z,7.94
2023-04-27T19:28:03.237Z,7.77
2023-04-27T19:30:30.969Z,7.55
2023-04-27T19:32:58.555Z,7.42
2023-04-27T19:35:27.547Z,7.32
2023-04-27T19:37:55.269Z,7.15
2023-04-27T19:40:22.968Z,7.12
2023-04-27T19:42:50.727Z,7.10
2023-04-27T19:45:18.856Z,7.11
2023-04-27T19:47:47.835Z,7.13
2023-04-27T19:50:16.081Z,7.06
2023-04-27T19:52:45.057Z,6.94
2023-04-27T19:55:13.242Z,6.85
2023-04-27T19:57:40.811Z,6.79
2023-04-27T20:00:11.591Z,6.81
2023-04-27T20:02:42.132Z,6.91
2023-04-27T20:05:10.497Z,6.88
2023-04-27T20:07:38.304Z,6.81
2023-04-27T20:10:08.295Z,6.68
2023-04-27T20:15:07.196Z,6.68
2023-04-27T20:17:34.889Z,6.63
2023-04-27T20:20:02.455Z,6.66
2023-04-27T20:22:30.042Z,6.61
2023-04-27T20:24:59.074Z,6.51
2023-04-27T20:27:27.976Z,6.46
2023-04-27T20:29:55.578Z,6.51
2023-04-27T20:32:23.101Z,6.55
2023-04-27T20:34:50.634Z,6.67
2023-04-27T20:37:18.717Z,6.66
2023-04-27T20:39:46.250Z,6.60
2023-04-27T20:42:14.415Z,6.65
2023-04-27T20:44:46.259Z,6.59
2023-04-27T20:47:14.702Z,6.56
2023-04-27T20:49:42.307Z,6.46
2023-04-27T20:52:09.870Z,6.37
2023-04-27T20:54:37.556Z,6.39
2023-04-27T20:57:08.554Z,6.44
2023-04-27T20:59:36.193Z,6.34
2023-04-27T21:02:05.066Z,6.24
2023-04-27T21:04:32.698Z,6.14
2023-04-27T21:07:00.388Z,6.03
2023-04-27T21:09:27.900Z,5.98
2023-04-27T21:11:55.547Z,5.88
2023-04-27T21:14:23.042Z,5.88
2023-04-27T21:16:50.742Z,5.99
2023-04-27T21:19:19.675Z,6.07
2023-04-27T21:21:47.179Z,6.16
2023-04-27T21:24:14.813Z,6.13
2023-04-27T21:26:43.007Z,6.04
2023-04-27T21:29:10.585Z,6.11
2023-04-27T21:31:38.336Z,6.11
2023-04-27T21:34:05.984Z,6.14
2023-04-27T21:36:34.880Z,6.17
2023-04-27T21:39:02.377Z,6.20
2023-04-27T21:41:29.908Z,6.26
2023-04-27T21:43:57.478Z,6.26
2023-04-27T21:46:25.030Z,6.29
2023-04-27T21:48:52.550Z,6.32
2023-04-27T21:51:20.108Z,6.31
2023-04-27T21:53:48.982Z,6.38
2023-04-27T21:56:16.545Z,6.38
2023-04-27T21:58:44.099Z,6.37
2023-04-27T22:01:12.914Z,6.35
2023-04-27T22:03:40.628Z,6.38
2023-04-27T22:06:08.932Z,6.46
2023-04-27T22:08:36.679Z,6.44
2023-04-27T22:11:05.738Z,6.41
2023-04-27T22:13:33.322Z,6.40
2023-04-27T22:16:00.874Z,6.45
2023-04-27T22:18:28.624Z,6.41
2023-04-27T22:20:57.887Z,6.43
2023-04-27T22:23:25.837Z,6.47
2023-04-27T22:25:53.346Z,6.43
2023-04-27T22:28:22.250Z,6.46
2023-04-27T22:30:49.764Z,6.45
2023-04-27T22:33:18.231Z,6.35
2023-04-27T22:35:46.178Z,6.26
2023-04-27T22:38:13.900Z,6.26
2023-04-27T22:40:41.727Z,6.26
2023-04-27T22:43:09.239Z,6.21
2023-04-27T22:45:38.950Z,6.20
2023-04-27T22:48:07.719Z,6.21
2023-04-27T22:50:35.341Z,6.28
2023-04-27T22:53:03.605Z,6.28
2023-04-27T22:55:31.230Z,6.22
2023-04-27T22:57:58.768Z,6.20
2023-04-27T23:00:26.327Z,6.23
2023-04-27T23:02:55.303Z,6.21
2023-04-27T23:05:23.052Z,6.22
2023-04-27T23:07:51.727Z,6.31
2023-04-27T23:10:19.727Z,6.27
2023-04-27T23:12:47.342Z,6.31
2023-04-27T23:15:15.116Z,6.33
2023-04-27T23:17:43.447Z,6.18
2023-04-27T23:20:24.577Z,6.10
2023-04-27T23:22:54.688Z,6.04
2023-04-27T23:25:22.440Z,6.06
2023-04-27T23:27:52.161Z,6.17
2023-04-27T23:30:20.709Z,6.16
2023-04-27T23:32:48.241Z,6.17
2023-04-27T23:35:17.192Z,6.11
2023-04-27T23:37:44.850Z,6.22
2023-04-27T23:40:13.271Z,6.16
2023-04-27T23:42:40.795Z,6.16
2023-04-27T23:45:09.196Z,6.10
2023-04-27T23:47:36.988Z,6.11
2023-04-27T23:50:04.982Z,6.03
2023-04-27T23:52:33.906Z,6.15
2023-04-27T23:55:01.424Z,6.17
2023-04-27T23:57:28.938Z,6.19
2023-04-27T23:59:56.448Z,6.20
